Saltar para o conteúdo principal

Anadia

ID 1210705 · 40.4389, -8.4400 mapa

Última leitura · 2026-05-09 19:00 (Europe/Lisbon)

Temperatura
13.3 °C
Humidade
87 %
Pressão
Precipitação
2.2 mm
Radiação
51 W/m²
Velocidade do vento
7.2 km/h
Direcção do vento
SE · Sudeste

Histórico de 24 horas

Hora (Europe/Lisbon) Temperatura Humidade Pressão Chuva Vento Direcção
2026-05-09 19:00 13.3 °C 87 % 2.2 mm 7.2 km/h SE
2026-05-09 18:00 15.9 °C 84 % 0.5 mm 9.7 km/h SE
2026-05-09 17:00 15.7 °C 84 % 0.0 mm 5.4 km/h S
2026-05-09 16:00 15.1 °C 91 % 1.2 mm 4.7 km/h S
2026-05-09 15:00 18.8 °C 73 % 2.6 mm 5.4 km/h SW
2026-05-09 14:00 18.7 °C 68 % 0.0 mm
2026-05-09 13:00 17.8 °C 66 % 0.0 mm 6.5 km/h S
2026-05-09 12:00 17.2 °C 73 % 0.0 mm 8.6 km/h SE
2026-05-09 11:00 14.3 °C 87 % 0.7 mm 8.6 km/h E
2026-05-09 10:00 14.1 °C 91 % 0.9 mm 8.3 km/h SE
2026-05-09 09:00 13.8 °C 93 % 0.4 mm 1.8 km/h SW
2026-05-09 08:00 13.3 °C 90 % 1.1 mm 1.8 km/h SW
2026-05-09 07:00 14.0 °C 75 % 0.2 mm 4.7 km/h S
2026-05-09 06:00 14.9 °C 70 % 0.0 mm 6.1 km/h SE
2026-05-09 05:00 15.4 °C 65 % 0.0 mm 11.9 km/h SE
2026-05-09 04:00 14.7 °C 69 % 0.0 mm
2026-05-09 03:00 14.1 °C 77 % 0.0 mm 4.3 km/h S
2026-05-09 02:00 13.7 °C 89 % 0.0 mm 4.3 km/h SE
2026-05-09 01:00 14.1 °C 88 % 0.0 mm 6.1 km/h S
2026-05-09 00:00 13.9 °C 90 % 1.0 mm
2026-05-08 23:00 15.4 °C 77 % 1.0 mm 6.1 km/h
2026-05-08 22:00 16.6 °C 65 % 0.0 mm 2.5 km/h SW
2026-05-08 21:00 17.0 °C 63 % 0.0 mm 0.7 km/h E
2026-05-08 20:00 19.0 °C 51 % 0.0 mm 3.2 km/h SE